Time;durP1;ratioP1;P1;durP2;ratioP2;P2;SDS_P1;SDS_P2;PMS_P1;PMS_P2;Temp;Humidity;BMP_temperature;BMP_pressure;BME280_temperature;BME280_humidity;BME280_pressure;Samples;Min_cycle;Max_cycle;Signal;HPM_P1;HPM_P2
2023/09/05 00:00:03;;;;;;;14.32;6.70;;;15.50;99.90;;;;;;4977570;28;20086;-73
2023/09/05 00:02:29;;;;;;;14.85;6.35;;;15.50;99.90;;;;;;4994931;28;20125;-72
2023/09/05 00:04:56;;;;;;;19.42;7.00;;;15.50;99.90;;;;;;4994928;28;20146;-73
2023/09/05 00:07:22;;;;;;;14.30;7.13;;;15.40;99.90;;;;;;4994950;28;20058;-73
2023/09/05 00:09:48;;;;;;;14.50;6.33;;;15.40;99.90;;;;;;4993794;28;20375;-73
2023/09/05 00:12:14;;;;;;;13.00;6.45;;;15.40;99.90;;;;;;4994832;28;20054;-72
2023/09/05 00:14:39;;;;;;;18.40;7.03;;;15.40;99.90;;;;;;4995242;28;20050;-73
2023/09/05 00:17:05;;;;;;;13.55;6.50;;;15.40;99.90;;;;;;5002704;28;20046;-73
2023/09/05 00:19:31;;;;;;;15.63;6.97;;;15.40;99.90;;;;;;4999492;28;20054;-72
2023/09/05 00:21:57;;;;;;;15.27;7.20;;;15.30;99.90;;;;;;4995330;28;20415;-73
2023/09/05 00:24:39;;;;;;;18.10;8.30;;;15.30;99.90;;;;;;4994566;28;20046;-72
2023/09/05 00:27:07;;;;;;;16.58;7.80;;;15.20;99.90;;;;;;4994551;28;20096;-72
2023/09/05 00:29:33;;;;;;;14.15;6.90;;;15.20;99.90;;;;;;4994310;28;20584;-73
2023/09/05 00:32:03;;;;;;;19.02;7.45;;;15.20;99.90;;;;;;4994751;28;20046;-74
2023/09/05 00:34:31;;;;;;;18.27;7.25;;;15.10;99.90;;;;;;4993232;28;20050;-74
2023/09/05 00:37:00;;;;;;;13.10;7.25;;;15.10;99.90;;;;;;4992795;28;20054;-74
2023/09/05 00:39:27;;;;;;;16.80;7.38;;;15.10;99.90;;;;;;4992687;28;20050;-74
2023/09/05 00:41:56;;;;;;;16.92;7.50;;;15.10;99.90;;;;;;4993118;28;20049;-72
2023/09/05 00:44:25;;;;;;;15.07;7.35;;;15.10;99.90;;;;;;4977395;28;20384;-72
2023/09/05 00:46:52;;;;;;;17.65;7.25;;;15.10;99.90;;;;;;4993114;28;20394;-73
2023/09/05 00:49:22;;;;;;;16.58;8.15;;;15.10;99.90;;;;;;4992835;28;20054;-75
2023/09/05 00:51:50;;;;;;;15.65;7.80;;;15.10;99.90;;;;;;4994245;28;20406;-75
2023/09/05 00:54:17;;;;;;;15.10;7.85;;;15.00;99.90;;;;;;4994032;28;20054;-74
2023/09/05 00:56:46;;;;;;;15.40;7.55;;;15.00;99.90;;;;;;4992775;28;20054;-74
2023/09/05 00:59:12;;;;;;;17.10;7.50;;;15.00;99.90;;;;;;4993756;28;20043;-74
2023/09/05 01:01:38;;;;;;;16.42;8.10;;;14.90;99.90;;;;;;4977426;28;20050;-73
2023/09/05 01:04:04;;;;;;;15.40;7.88;;;15.00;99.90;;;;;;4960525;28;20049;-73
2023/09/05 01:06:55;;;;;;;16.17;7.55;;;14.90;99.90;;;;;;4993739;28;20061;-73
2023/09/05 01:09:58;;;;;;;17.30;8.20;;;14.90;99.90;;;;;;4995068;28;20082;-74
2023/09/05 01:12:25;;;;;;;15.15;7.82;;;14.90;99.90;;;;;;4993596;28;20379;-72
2023/09/05 01:14:51;;;;;;;20.85;8.63;;;14.90;99.90;;;;;;4993080;28;20089;-74
2023/09/05 01:17:17;;;;;;;16.25;8.30;;;14.90;99.90;;;;;;4993215;28;20057;-74
2023/09/05 01:19:44;;;;;;;16.30;8.63;;;14.80;99.90;;;;;;4993004;28;20109;-74
2023/09/05 01:22:28;;;;;;;17.20;7.80;;;14.80;99.90;;;;;;4993642;28;20066;-73
2023/09/05 01:24:54;;;;;;;17.98;8.55;;;14.80;99.90;;;;;;4994153;28;20046;-74
2023/09/05 01:27:22;;;;;;;13.73;7.63;;;14.80;99.90;;;;;;4994375;28;20054;-74
2023/09/05 01:29:49;;;;;;;20.30;8.52;;;14.80;99.90;;;;;;4977609;28;20129;-72
2023/09/05 01:32:16;;;;;;;15.95;8.07;;;14.70;99.90;;;;;;4999627;28;20050;-72
2023/09/05 01:34:42;;;;;;;;;;;14.70;99.90;;;;;;4993637;28;20600;-73
2023/09/05 01:37:14;;;;;;;20.80;8.63;;;14.70;99.90;;;;;;4992728;28;19928;-72
2023/09/05 01:39:40;;;;;;;17.58;8.18;;;14.70;99.90;;;;;;4992673;28;20046;-73
2023/09/05 01:42:06;;;;;;;18.38;8.85;;;14.60;99.90;;;;;;4992863;28;20054;-73
2023/09/05 01:44:36;;;;;;;17.40;8.35;;;14.60;99.90;;;;;;4993703;28;20141;-73
2023/09/05 01:47:03;;;;;;;18.63;8.68;;;14.60;99.90;;;;;;4994423;28;20085;-73
2023/09/05 01:49:28;;;;;;;;;;;14.60;99.90;;;;;;4995036;28;20047;-73
2023/09/05 01:51:54;;;;;;;17.20;8.33;;;14.50;99.90;;;;;;4980226;28;19928;-73
2023/09/05 01:54:20;;;;;;;16.83;8.65;;;14.50;99.90;;;;;;4997214;28;20047;-72
2023/09/05 01:56:45;;;;;;;17.90;8.45;;;14.50;99.90;;;;;;4998048;28;20118;-72
2023/09/05 01:59:12;;;;;;;16.55;8.13;;;14.50;99.90;;;;;;4995856;28;20046;-73
2023/09/05 02:01:38;;;;;;;19.13;9.68;;;14.50;99.90;;;;;;4996361;28;20089;-73
2023/09/05 02:04:04;;;;;;;15.57;8.77;;;14.50;99.90;;;;;;4996909;28;20459;-73
2023/09/05 02:06:30;;;;;;;19.35;8.70;;;14.40;99.90;;;;;;4995559;28;20113;-73
2023/09/05 02:08:55;;;;;;;20.08;8.60;;;14.40;99.90;;;;;;4997565;28;20479;-73
2023/09/05 02:11:21;;;;;;;19.58;8.63;;;14.40;99.90;;;;;;4996059;28;20133;-72
2023/09/05 02:13:47;;;;;;;19.40;8.57;;;14.40;99.90;;;;;;4996932;28;20549;-73
2023/09/05 02:16:18;;;;;;;18.27;8.70;;;14.40;99.90;;;;;;4996716;28;20049;-74
2023/09/05 02:18:47;;;;;;;17.17;8.52;;;14.40;99.90;;;;;;4995693;28;20058;-73
2023/09/05 02:21:14;;;;;;;17.02;8.60;;;14.30;99.90;;;;;;4997333;28;20078;-73
2023/09/05 02:23:40;;;;;;;18.35;8.23;;;14.30;99.90;;;;;;4995582;28;20046;-72
2023/09/05 02:26:05;;;;;;;20.33;8.32;;;14.30;99.90;;;;;;4995387;28;20101;-73
2023/09/05 02:28:31;;;;;;;16.92;7.95;;;14.30;99.90;;;;;;4980298;28;20050;-73
2023/09/05 02:30:57;;;;;;;16.60;8.07;;;14.30;99.90;;;;;;4995679;28;20458;-72
2023/09/05 02:33:23;;;;;;;18.02;8.73;;;14.30;99.90;;;;;;4996526;28;20047;-73
2023/09/05 02:35:49;;;;;;;18.00;8.83;;;14.30;99.90;;;;;;4979415;28;20038;-73
2023/09/05 02:38:15;;;;;;;19.75;8.85;;;14.30;99.90;;;;;;4999126;28;20050;-73
2023/09/05 02:40:48;;;;;;;17.73;9.17;;;14.30;99.90;;;;;;5000430;28;20082;-73
2023/09/05 02:43:14;;;;;;;20.02;9.50;;;14.20;99.90;;;;;;4995447;28;20038;-72
2023/09/05 02:45:40;;;;;;;23.35;9.75;;;14.30;99.90;;;;;;4996489;28;20049;-74
2023/09/05 02:48:09;;;;;;;21.05;9.68;;;14.20;99.90;;;;;;4996142;28;20479;-72
2023/09/05 02:50:34;;;;;;;22.52;9.52;;;14.20;99.90;;;;;;4979113;28;20506;-74
2023/09/05 02:53:00;;;;;;;16.58;9.23;;;14.20;99.90;;;;;;4996079;28;20085;-73
2023/09/05 02:55:26;;;;;;;21.98;9.95;;;14.20;99.90;;;;;;4994857;28;20133;-70
2023/09/05 02:57:52;;;;;;;20.35;9.75;;;14.20;99.90;;;;;;4996145;28;20122;-73
2023/09/05 03:00:19;;;;;;;17.27;9.65;;;14.10;99.90;;;;;;4978484;28;20050;-74
2023/09/05 03:02:46;;;;;;;19.20;10.55;;;14.10;99.90;;;;;;4995362;28;20106;-74
2023/09/05 03:05:13;;;;;;;18.63;10.18;;;14.10;99.90;;;;;;4978922;28;20141;-74
2023/09/05 03:07:39;;;;;;;22.33;9.68;;;14.10;99.90;;;;;;4994310;28;20062;-73
2023/09/05 03:10:05;;;;;;;21.90;10.80;;;14.10;99.90;;;;;;4996251;28;20076;-73
2023/09/05 03:12:31;;;;;;;18.88;10.18;;;14.00;99.90;;;;;;4995693;28;20057;-73
2023/09/05 03:14:57;;;;;;;21.55;10.05;;;14.00;99.90;;;;;;4995789;28;20042;-73
2023/09/05 03:17:23;;;;;;;18.98;10.30;;;14.00;99.90;;;;;;4994471;28;20526;-73
2023/09/05 03:19:48;;;;;;;23.30;10.63;;;14.00;99.90;;;;;;4979353;28;20473;-74
2023/09/05 03:22:14;;;;;;;22.38;10.35;;;14.00;99.90;;;;;;4996380;28;20101;-73
2023/09/05 03:24:40;;;;;;;19.58;10.18;;;14.00;99.90;;;;;;4995629;28;20046;-74
2023/09/05 03:27:06;;;;;;;21.15;10.75;;;14.00;99.90;;;;;;4994721;28;20121;-72
2023/09/05 03:29:31;;;;;;;19.50;9.85;;;14.00;99.90;;;;;;4995294;28;20054;-72
2023/09/05 03:31:57;;;;;;;21.10;10.27;;;14.00;99.90;;;;;;4995486;28;20398;-73
2023/09/05 03:34:23;;;;;;;19.77;10.35;;;14.00;99.90;;;;;;4994171;28;20034;-74
2023/09/05 03:36:49;;;;;;;25.92;10.45;;;13.90;99.90;;;;;;4993792;28;20101;-73
2023/09/05 03:39:15;;;;;;;20.37;10.50;;;13.90;99.90;;;;;;4994289;28;20126;-72
2023/09/05 03:41:41;;;;;;;20.40;10.45;;;13.90;99.90;;;;;;4995299;28;20050;-74
2023/09/05 03:44:07;;;;;;;19.25;10.10;;;13.90;99.90;;;;;;4978013;28;20130;-74
2023/09/05 03:46:33;;;;;;;20.92;10.02;;;13.90;99.90;;;;;;4978002;28;20099;-72
2023/09/05 03:48:59;;;;;;;22.55;9.77;;;13.90;99.90;;;;;;4993918;28;20053;-74
2023/09/05 03:51:27;;;;;;;18.52;10.32;;;13.90;99.90;;;;;;4995851;28;20394;-73
2023/09/05 03:53:52;;;;;;;24.25;10.55;;;13.90;99.90;;;;;;4995828;28;20393;-74
2023/09/05 03:56:18;;;;;;;18.83;10.15;;;13.90;99.90;;;;;;4994070;28;20190;-74
2023/09/05 03:58:44;;;;;;;22.75;10.77;;;13.90;99.90;;;;;;4977549;28;20057;-73
2023/09/05 04:01:16;;;;;;;24.00;10.68;;;13.90;99.90;;;;;;4994956;28;20050;-73
2023/09/05 04:03:42;;;;;;;22.00;10.38;;;13.90;99.90;;;;;;4993679;28;20386;-72
2023/09/05 04:06:07;;;;;;;20.55;10.25;;;14.00;99.90;;;;;;4994556;28;20062;-73
2023/09/05 04:08:33;;;;;;;22.45;11.30;;;14.00;99.90;;;;;;4995179;28;20054;-74
2023/09/05 04:11:01;;;;;;;26.63;10.90;;;14.00;99.90;;;;;;4994750;28;20046;-74
2023/09/05 04:13:27;;;;;;;23.73;11.93;;;14.00;99.90;;;;;;4994575;28;20082;-73
2023/09/05 04:15:53;;;;;;;23.55;12.15;;;14.00;99.90;;;;;;4994486;28;20050;-74
2023/09/05 04:18:19;;;;;;;27.37;12.97;;;14.00;99.90;;;;;;4994597;28;20046;-74
2023/09/05 04:20:45;;;;;;;24.13;13.10;;;14.00;99.90;;;;;;4995321;28;20050;-73
2023/09/05 04:23:11;;;;;;;23.60;11.63;;;14.00;99.90;;;;;;4994390;28;20038;-73
2023/09/05 04:25:40;;;;;;;22.60;11.82;;;14.00;99.90;;;;;;4993103;28;20483;-73
2023/09/05 04:28:07;;;;;;;22.02;10.77;;;13.90;99.90;;;;;;4993376;28;20438;-74
2023/09/05 04:30:34;;;;;;;23.85;11.23;;;13.90;99.90;;;;;;4994394;28;20081;-73
2023/09/05 04:33:02;;;;;;;;;;;13.90;99.90;;;;;;4994604;28;20061;-73
2023/09/05 04:35:28;;;;;;;24.15;12.02;;;13.90;99.90;;;;;;4994354;28;19922;-73
2023/09/05 04:37:54;;;;;;;23.33;11.65;;;13.90;99.90;;;;;;4994179;28;20038;-74
2023/09/05 04:40:20;;;;;;;24.15;11.40;;;13.80;99.90;;;;;;4994255;28;20390;-73
2023/09/05 04:42:46;;;;;;;28.95;12.98;;;13.80;99.90;;;;;;4994133;28;20086;-73
2023/09/05 04:45:12;;;;;;;23.80;11.97;;;13.80;99.90;;;;;;4977132;28;20148;-74
2023/09/05 04:47:40;;;;;;;23.83;11.88;;;13.80;99.90;;;;;;4994205;28;20769;-73
2023/09/05 04:50:10;;;;;;;24.17;12.20;;;13.80;99.90;;;;;;4994119;28;20046;-73
2023/09/05 04:52:36;;;;;;;24.08;11.63;;;13.80;99.90;;;;;;4994076;28;20042;-73
2023/09/05 04:55:01;;;;;;;24.25;12.68;;;13.80;99.90;;;;;;4994286;28;20096;-73
2023/09/05 04:57:28;;;;;;;26.23;12.23;;;13.80;99.90;;;;;;4994070;28;20050;-73
2023/09/05 04:59:59;;;;;;;25.98;12.15;;;13.80;99.90;;;;;;4977369;28;20053;-74
2023/09/05 05:02:26;;;;;;;25.92;12.20;;;13.80;99.90;;;;;;4994959;28;20057;-74
2023/09/05 05:04:56;;;;;;;24.92;12.13;;;13.80;99.90;;;;;;4994342;28;20406;-73
2023/09/05 05:07:21;;;;;;;27.77;13.38;;;13.90;99.90;;;;;;4993852;28;20458;-73
2023/09/05 05:09:47;;;;;;;28.13;12.77;;;13.90;99.90;;;;;;4993900;28;20046;-72
2023/09/05 05:12:14;;;;;;;26.02;13.38;;;13.90;99.90;;;;;;4992975;28;20074;-74
2023/09/05 05:14:40;;;;;;;25.20;12.55;;;13.90;99.90;;;;;;4992770;28;20145;-73
2023/09/05 05:17:06;;;;;;;24.80;12.88;;;13.90;99.90;;;;;;4993536;28;20126;-74
2023/09/05 05:19:32;;;;;;;26.33;12.30;;;14.00;99.90;;;;;;4994038;28;20050;-74
2023/09/05 05:21:58;;;;;;;24.58;12.38;;;14.00;99.90;;;;;;4993848;28;20054;-74
2023/09/05 05:24:24;;;;;;;23.63;12.93;;;14.10;99.90;;;;;;4995967;28;20128;-74
2023/09/05 05:26:50;;;;;;;26.52;12.95;;;14.10;99.90;;;;;;4997809;28;20046;-73
2023/09/05 05:29:15;;;;;;;24.80;12.80;;;14.00;99.90;;;;;;4996525;28;20046;-74
2023/09/05 05:31:42;;;;;;;30.92;14.05;;;14.10;99.90;;;;;;4997930;28;20046;-74
2023/09/05 05:34:08;;;;;;;26.17;13.30;;;14.10;99.90;;;;;;4997716;28;20429;-74
2023/09/05 05:36:34;;;;;;;29.38;13.20;;;14.20;99.90;;;;;;4997701;28;20457;-74
2023/09/05 05:39:01;;;;;;;22.95;12.98;;;14.20;99.90;;;;;;4997999;28;20043;-73
2023/09/05 05:41:27;;;;;;;27.70;13.57;;;14.20;99.90;;;;;;4996232;28;20459;-74
2023/09/05 05:43:53;;;;;;;27.58;13.60;;;14.30;99.90;;;;;;4997351;28;20050;-73
2023/09/05 05:46:19;;;;;;;26.55;12.73;;;14.30;99.90;;;;;;4997416;28;20104;-74
2023/09/05 05:48:45;;;;;;;24.50;13.20;;;14.40;99.90;;;;;;4997329;28;20125;-73
2023/09/05 05:51:15;;;;;;;23.33;12.95;;;14.50;99.90;;;;;;4997207;28;20050;-73
2023/09/05 05:53:46;;;;;;;23.67;12.05;;;14.50;99.90;;;;;;4997973;28;20367;-72
2023/09/05 05:56:12;;;;;;;23.35;11.95;;;14.60;99.90;;;;;;4996241;28;20058;-72
2023/09/05 05:58:39;;;;;;;25.05;13.18;;;14.70;99.90;;;;;;4979958;28;20050;-72
2023/09/05 06:01:07;;;;;;;22.00;12.05;;;14.80;99.90;;;;;;4996405;28;20054;-73
2023/09/05 06:03:35;;;;;;;27.20;13.32;;;14.80;99.90;;;;;;4997079;28;20046;-73
2023/09/05 06:06:01;;;;;;;27.20;12.95;;;14.90;99.90;;;;;;4995498;28;20490;-72
2023/09/05 06:08:27;;;;;;;33.03;14.70;;;14.90;99.90;;;;;;4996054;28;20483;-73
2023/09/05 06:10:53;;;;;;;27.35;12.57;;;14.90;99.90;;;;;;4996914;28;20058;-72
2023/09/05 06:13:18;;;;;;;24.75;12.90;;;15.00;99.90;;;;;;4997161;28;20390;-74
2023/09/05 06:15:44;;;;;;;26.38;12.40;;;15.00;99.90;;;;;;4997361;28;20046;-72
2023/09/05 06:18:11;;;;;;;24.52;12.35;;;15.10;99.90;;;;;;4996838;28;20061;-73
2023/09/05 06:20:37;;;;;;;;;;;15.30;99.90;;;;;;4997405;28;20402;-72
2023/09/05 06:23:03;;;;;;;24.73;12.10;;;15.40;99.90;;;;;;4995965;28;19926;-72
2023/09/05 06:25:29;;;;;;;25.77;12.38;;;15.50;99.90;;;;;;4995664;28;20109;-72
2023/09/05 06:27:55;;;;;;;22.73;11.00;;;15.50;99.90;;;;;;4997022;28;20042;-73
2023/09/05 06:30:22;;;;;;;25.73;12.10;;;15.60;99.90;;;;;;4997133;28;20038;-73
2023/09/05 06:32:48;;;;;;;23.52;11.02;;;15.70;99.90;;;;;;4997119;28;20104;-74
2023/09/05 06:35:13;;;;;;;27.17;11.73;;;15.80;99.90;;;;;;4995362;28;20090;-73
2023/09/05 06:37:39;;;;;;;23.55;10.60;;;15.90;99.90;;;;;;4996554;28;20050;-72
2023/09/05 06:40:09;;;;;;;24.95;10.65;;;15.90;99.90;;;;;;4979078;28;20046;-73
2023/09/05 06:42:41;;;;;;;25.80;11.25;;;16.10;99.90;;;;;;4995453;28;20082;-73
2023/09/05 06:45:08;;;;;;;23.45;10.73;;;16.10;99.90;;;;;;4995301;28;20046;-73
2023/09/05 06:47:34;;;;;;;21.15;10.52;;;16.20;99.90;;;;;;4979160;28;20042;-73
2023/09/05 06:50:00;;;;;;;22.13;10.40;;;16.30;99.90;;;;;;4996199;28;20046;-72
2023/09/05 06:52:26;;;;;;;24.27;10.37;;;16.40;99.90;;;;;;4996198;28;20090;-71
2023/09/05 06:54:52;;;;;;;22.23;10.13;;;16.60;99.90;;;;;;4995217;28;20100;-72
2023/09/05 06:57:18;;;;;;;26.50;10.75;;;16.70;99.90;;;;;;4996155;28;20042;-73
2023/09/05 06:59:44;;;;;;;22.10;10.13;;;16.80;99.90;;;;;;4996193;28;20043;-73
2023/09/05 07:02:09;;;;;;;21.20;9.63;;;16.90;99.90;;;;;;4995956;28;20506;-71
2023/09/05 07:04:36;;;;;;;20.48;10.15;;;17.00;99.90;;;;;;4994768;28;20050;-72
2023/09/05 07:07:03;;;;;;;22.23;10.85;;;17.10;99.90;;;;;;4994399;28;20137;-74
2023/09/05 07:09:30;;;;;;;23.73;10.23;;;17.20;99.90;;;;;;4994694;28;20053;-72
2023/09/05 07:11:56;;;;;;;19.48;9.55;;;17.30;99.90;;;;;;4978508;28;20490;-73
2023/09/05 07:14:21;;;;;;;20.60;9.93;;;17.40;99.90;;;;;;4994559;28;20054;-73
2023/09/05 07:16:47;;;;;;;23.55;9.38;;;17.60;99.90;;;;;;4994973;28;20054;-74
2023/09/05 07:19:13;;;;;;;19.10;9.23;;;17.70;99.90;;;;;;4994529;28;20050;-74
2023/09/05 07:21:40;;;;;;;20.02;9.27;;;17.80;99.90;;;;;;4978309;28;20121;-74
2023/09/05 07:24:13;;;;;;;21.42;9.52;;;17.90;99.90;;;;;;4994892;28;20381;-73
2023/09/05 07:26:41;;;;;;;22.63;9.10;;;18.00;99.90;;;;;;4996053;28;20482;-72
2023/09/05 07:29:10;;;;;;;19.15;8.63;;;18.10;99.90;;;;;;4995501;28;20042;-72
2023/09/05 07:31:37;;;;;;;21.95;9.48;;;18.30;99.90;;;;;;4995559;28;20061;-73
2023/09/05 07:34:03;;;;;;;18.73;8.70;;;18.40;99.90;;;;;;4995589;28;20117;-72
2023/09/05 07:36:31;;;;;;;19.27;8.50;;;18.40;99.90;;;;;;4995443;28;20046;-74
2023/09/05 07:38:56;;;;;;;19.20;8.18;;;18.50;99.90;;;;;;4994221;28;20269;-75
2023/09/05 07:41:22;;;;;;;20.23;8.27;;;18.60;99.90;;;;;;4995990;28;20050;-72
2023/09/05 07:43:48;;;;;;;20.73;8.10;;;18.70;99.90;;;;;;4996340;28;20073;-74
2023/09/05 07:46:14;;;;;;;18.77;8.20;;;18.80;99.90;;;;;;4980165;28;20093;-75
2023/09/05 07:48:40;;;;;;;18.87;7.30;;;18.90;99.90;;;;;;4997168;28;20052;-71
2023/09/05 07:51:07;;;;;;;16.45;7.57;;;19.00;99.90;;;;;;4997005;28;20050;-71
2023/09/05 07:53:37;;;;;;;21.05;8.88;;;19.10;99.90;;;;;;4997185;28;20093;-73
2023/09/05 07:56:07;;;;;;;13.75;6.90;;;19.20;99.90;;;;;;4996269;28;20402;-74
2023/09/05 07:58:32;;;;;;;16.00;7.22;;;19.40;99.90;;;;;;4963809;28;20490;-74
2023/09/05 08:00:59;;;;;;;15.77;7.33;;;19.50;99.90;;;;;;4994728;28;20100;-74
2023/09/05 08:03:26;;;;;;;16.40;7.18;;;19.50;99.90;;;;;;4994962;28;20042;-74
2023/09/05 08:05:53;;;;;;;18.45;7.75;;;19.70;99.90;;;;;;4994940;28;20107;-72
2023/09/05 08:08:20;;;;;;;17.38;7.47;;;19.80;99.90;;;;;;4994853;28;20098;-74
2023/09/05 08:10:45;;;;;;;13.27;6.43;;;19.90;99.90;;;;;;4993929;28;20039;-73
2023/09/05 08:13:13;;;;;;;18.10;6.87;;;20.00;99.90;;;;;;4994745;28;20077;-75
2023/09/05 08:15:41;;;;;;;17.80;7.47;;;20.10;99.90;;;;;;4993384;28;20487;-73
2023/09/05 08:18:07;;;;;;;15.95;6.72;;;20.20;99.90;;;;;;4995284;28;20051;-73
2023/09/05 08:20:33;;;;;;;17.13;6.37;;;20.30;99.90;;;;;;4994652;28;20046;-74
2023/09/05 08:23:01;;;;;;;13.47;6.47;;;20.40;99.90;;;;;;4993321;28;20046;-74
2023/09/05 08:25:27;;;;;;;13.98;6.28;;;20.50;99.90;;;;;;4993375;28;20054;-74
2023/09/05 08:27:56;;;;;;;15.87;6.67;;;20.60;99.90;;;;;;4993642;28;20418;-73
2023/09/05 08:30:24;;;;;;;17.92;7.18;;;20.70;99.90;;;;;;4994523;28;20053;-72
2023/09/05 08:32:50;;;;;;;17.83;6.88;;;20.80;99.90;;;;;;4995041;28;20138;-74
2023/09/05 08:35:16;;;;;;;15.65;6.68;;;20.90;99.90;;;;;;4996970;28;20070;-74
2023/09/05 08:37:43;;;;;;;16.63;6.60;;;21.00;99.90;;;;;;4994481;28;20501;-73
2023/09/05 08:40:10;;;;;;;15.63;6.60;;;21.10;99.90;;;;;;4995283;28;20355;-72
2023/09/05 08:42:36;;;;;;;;;;;21.20;99.90;;;;;;4962576;28;20054;-74
2023/09/05 08:45:04;;;;;;;;;;;21.30;99.90;;;;;;4995682;28;20278;-73
2023/09/05 08:47:31;;;;;;;14.18;5.53;;;21.30;99.90;;;;;;4995594;28;19921;-74
2023/09/05 08:50:00;;;;;;;15.65;5.90;;;21.40;99.90;;;;;;4993405;28;20517;-73
2023/09/05 08:52:31;;;;;;;13.48;6.28;;;21.50;99.90;;;;;;4993004;28;20058;-74
2023/09/05 08:54:59;;;;;;;15.70;6.75;;;21.60;99.90;;;;;;4994632;28;20132;-72
2023/09/05 08:57:25;;;;;;;16.77;6.10;;;21.80;99.90;;;;;;4992806;28;20046;-75
2023/09/05 08:59:54;;;;;;;17.25;6.35;;;21.90;99.90;;;;;;4992466;28;20055;-74
2023/09/05 09:02:19;;;;;;;17.02;6.13;;;22.00;99.90;;;;;;4993978;28;20054;-76
2023/09/05 09:04:53;;;;;;;16.90;5.87;;;22.00;99.90;;;;;;4994071;28;20054;-75
2023/09/05 09:07:22;;;;;;;16.70;6.30;;;22.10;99.90;;;;;;4992632;28;20057;-75
2023/09/05 09:09:48;;;;;;;17.45;5.80;;;22.20;99.90;;;;;;4993733;28;20047;-74
2023/09/05 09:12:13;;;;;;;17.43;6.27;;;22.30;99.90;;;;;;4993874;28;20060;-73
2023/09/05 09:14:39;;;;;;;13.07;5.27;;;22.40;99.90;;;;;;4993092;28;20042;-75
2023/09/05 09:17:05;;;;;;;14.23;5.03;;;22.50;99.90;;;;;;4993685;28;20393;-73
2023/09/05 09:19:32;;;;;;;12.27;5.35;;;22.60;99.90;;;;;;4992676;28;20069;-73
2023/09/05 09:22:02;;;;;;;;;;;22.70;99.90;;;;;;4995131;28;20316;-74
2023/09/05 09:24:39;;;;;;;19.55;5.43;;;22.70;99.90;;;;;;4993839;28;19928;-74
2023/09/05 09:27:05;;;;;;;12.25;5.05;;;22.80;99.90;;;;;;4992657;28;20058;-72
2023/09/05 09:29:32;;;;;;;15.10;5.30;;;22.90;99.90;;;;;;4993757;28;20108;-75
2023/09/05 09:32:05;;;;;;;13.02;5.30;;;22.90;99.90;;;;;;4993882;28;20093;-75
2023/09/05 09:34:34;;;;;;;13.43;4.78;;;23.00;99.90;;;;;;4993815;28;20093;-74
2023/09/05 09:37:00;;;;;;;17.42;7.00;;;23.10;99.90;;;;;;4993782;28;20112;-74
2023/09/05 09:39:29;;;;;;;12.80;4.67;;;23.20;99.90;;;;;;4992489;28;20085;-72
2023/09/05 09:41:59;;;;;;;15.52;5.10;;;23.20;99.90;;;;;;4992716;28;20058;-75
2023/09/05 09:44:30;;;;;;;16.33;5.45;;;23.30;99.90;;;;;;4993617;28;20442;-77
2023/09/05 09:46:58;;;;;;;11.88;5.45;;;23.40;99.90;;;;;;4993653;28;20054;-74
2023/09/05 09:49:25;;;;;;;11.70;4.82;;;23.50;99.90;;;;;;4993571;28;20046;-74
2023/09/05 09:51:56;;;;;;;17.02;5.10;;;23.50;99.90;;;;;;4993552;28;20058;-78
2023/09/05 09:54:31;;;;;;;15.20;5.55;;;23.60;99.90;;;;;;4993737;28;20050;-75
2023/09/05 09:57:04;;;;;;;12.30;5.20;;;23.70;99.90;;;;;;4992334;28;20042;-74
2023/09/05 09:59:37;;;;;;;12.73;5.65;;;23.80;99.90;;;;;;4994313;28;20395;-75
2023/09/05 10:02:09;;;;;;;15.00;4.82;;;23.80;99.90;;;;;;4993475;28;20061;-74
2023/09/05 10:04:37;;;;;;;14.38;5.75;;;23.80;99.90;;;;;;4993520;28;20053;-75
2023/09/05 10:07:06;;;;;;;15.32;5.72;;;23.90;99.90;;;;;;4993156;28;20084;-75
2023/09/05 10:09:39;;;;;;;16.27;5.70;;;24.00;99.90;;;;;;4994131;28;20050;-72
2023/09/05 10:12:05;;;;;;;16.25;5.13;;;24.10;99.90;;;;;;4980435;28;20109;-75
2023/09/05 10:14:33;;;;;;;20.38;5.53;;;24.20;99.90;;;;;;4996837;28;20046;-75
2023/09/05 10:17:00;;;;;;;15.32;4.25;;;24.20;99.90;;;;;;4995628;28;20097;-76
2023/09/05 10:19:27;;;;;;;13.02;4.88;;;24.30;99.90;;;;;;4995807;28;20046;-73
2023/09/05 10:21:55;;;;;;;15.15;5.00;;;24.40;99.90;;;;;;4996544;28;20133;-75
2023/09/05 10:24:27;;;;;;;22.90;5.20;;;24.40;99.90;;;;;;4997460;28;20407;-75
2023/09/05 10:26:53;;;;;;;12.95;4.80;;;24.50;99.90;;;;;;4996801;28;20422;-75
2023/09/05 10:29:32;;;;;;;11.40;4.57;;;24.70;99.90;;;;;;4995385;28;20057;-73
2023/09/05 10:31:58;;;;;;;22.08;4.95;;;24.70;99.90;;;;;;4996608;28;20054;-77
2023/09/05 10:34:50;;;;;;;21.27;7.55;;;24.70;99.90;;;;;;4996387;28;20047;-75
2023/09/05 10:37:23;;;;;;;11.88;4.10;;;24.90;99.90;;;;;;4995150;28;20054;-74
2023/09/05 10:39:52;;;;;;;12.43;4.20;;;25.00;99.90;;;;;;4996220;28;20050;-76
2023/09/05 10:42:26;;;;;;;12.82;3.80;;;25.00;99.90;;;;;;4996400;28;20081;-75
2023/09/05 10:44:52;;;;;;;13.68;4.18;;;25.10;99.90;;;;;;4995646;28;20112;-79
2023/09/05 10:47:44;;;;;;;10.43;4.47;;;25.20;99.90;;;;;;4996800;28;20046;-79
2023/09/05 10:50:12;;;;;;;12.05;3.72;;;25.20;99.90;;;;;;4994762;28;20545;-76
2023/09/05 10:52:38;;;;;;;10.75;4.22;;;25.30;99.90;;;;;;4996041;28;20054;-76
2023/09/05 10:55:29;;;;;;;11.07;3.70;;;25.30;99.90;;;;;;4996296;28;20050;-75
2023/09/05 10:57:55;;;;;;;11.65;3.75;;;25.40;99.90;;;;;;4996176;28;20051;-73
2023/09/05 11:00:22;;;;;;;13.77;4.43;;;25.50;99.90;;;;;;4996150;28;20046;-77
2023/09/05 11:02:48;;;;;;;11.50;4.20;;;25.60;99.90;;;;;;4994955;28;20129;-73
2023/09/05 11:05:18;;;;;;;10.70;4.25;;;25.60;99.90;;;;;;4995118;28;20053;-77
2023/09/05 11:07:50;;;;;;;11.85;3.80;;;25.60;99.90;;;;;;4996256;28;20063;-74
2023/09/05 11:10:24;;;;;;;8.98;3.72;;;25.60;99.90;;;;;;4996743;28;20432;-78
2023/09/05 11:12:50;;;;;;;12.00;3.97;;;25.60;99.90;;;;;;4996464;28;20133;-79
2023/09/05 11:15:36;;;;;;;11.70;3.83;;;25.70;99.90;;;;;;4996268;28;20133;-76
2023/09/05 11:18:06;;;;;;;;;;;25.70;99.90;;;;;;4996431;28;20054;-77
2023/09/05 11:20:49;;;;;;;11.77;4.15;;;25.70;99.90;;;;;;4995940;28;19975;-77
2023/09/05 11:23:25;;;;;;;12.50;4.25;;;25.70;99.90;;;;;;4994564;28;20057;-77
2023/09/05 11:26:00;;;;;;;10.77;3.87;;;25.80;99.90;;;;;;4995539;28;20050;-76
2023/09/05 11:28:26;;;;;;;11.82;4.20;;;25.80;99.90;;;;;;4995663;28;20285;-78
2023/09/05 11:30:56;;;;;;;11.73;4.20;;;25.80;99.90;;;;;;4996342;28;20046;-75
2023/09/05 11:33:23;;;;;;;16.88;4.03;;;25.80;99.90;;;;;;4995463;28;20109;-77
2023/09/05 11:35:49;;;;;;;11.73;4.68;;;25.90;99.90;;;;;;4995381;28;20050;-77
2023/09/05 11:38:23;;;;;;;14.00;4.28;;;25.90;99.90;;;;;;4978055;28;20046;-78
2023/09/05 11:40:51;;;;;;;11.80;4.20;;;26.00;99.90;;;;;;4994979;28;20046;-77
2023/09/05 11:43:16;;;;;;;17.20;4.60;;;26.00;99.90;;;;;;4995366;28;20054;-75
2023/09/05 11:45:45;;;;;;;9.73;4.00;;;26.10;99.90;;;;;;4994952;28;20072;-75
2023/09/05 11:48:12;;;;;;;10.15;4.25;;;26.10;99.90;;;;;;4995099;28;20506;-75
2023/09/05 11:50:43;;;;;;;13.88;4.32;;;26.10;99.90;;;;;;4994549;28;20065;-77
2023/09/05 11:53:11;;;;;;;11.18;4.40;;;26.10;99.90;;;;;;4961860;28;20046;-75
2023/09/05 11:55:38;;;;;;;10.93;4.43;;;26.10;99.90;;;;;;4994994;28;20104;-77
2023/09/05 11:58:05;;;;;;;16.00;4.45;;;26.20;99.90;;;;;;4995633;28;20450;-77
2023/09/05 12:00:32;;;;;;;10.27;4.68;;;26.30;99.90;;;;;;4994047;28;20125;-71
2023/09/05 12:03:00;;;;;;;10.73;4.00;;;26.30;99.90;;;;;;4994797;28;20077;-74
2023/09/05 12:05:26;;;;;;;9.93;4.07;;;26.30;99.90;;;;;;4995465;28;20053;-74
2023/09/05 12:07:56;;;;;;;14.60;4.20;;;26.30;99.90;;;;;;4994869;28;20066;-79
2023/09/05 12:10:25;;;;;;;16.02;4.28;;;26.30;99.90;;;;;;4978248;28;20050;-68
2023/09/05 12:12:57;;;;;;;11.63;4.03;;;26.40;99.90;;;;;;4994481;28;20188;-68
2023/09/05 12:15:30;;;;;;;10.18;4.18;;;26.40;99.90;;;;;;4994634;28;20197;-71
2023/09/05 12:17:59;;;;;;;12.07;4.10;;;26.50;99.90;;;;;;4994532;28;20089;-70
2023/09/05 12:20:26;;;;;;;11.77;4.10;;;26.50;99.90;;;;;;4994439;28;20042;-69
2023/09/05 12:22:52;;;;;;;;;;;26.50;99.90;;;;;;4995596;28;20050;-74
2023/09/05 12:25:19;;;;;;;;;;;26.60;99.90;;;;;;4994909;28;20370;-68
2023/09/05 12:27:47;;;;;;;70.03;29.08;;;26.60;99.90;;;;;;4993377;28;19972;-69
2023/09/05 12:30:25;;;;;;;10.18;4.03;;;26.60;99.90;;;;;;4993217;28;20058;-69
2023/09/05 12:33:02;;;;;;;9.10;3.97;;;26.70;99.90;;;;;;4993471;28;20042;-70
2023/09/05 12:35:31;;;;;;;10.32;4.20;;;26.60;99.90;;;;;;4994461;28;20366;-69
2023/09/05 12:37:59;;;;;;;10.73;4.18;;;26.70;99.90;;;;;;4994172;28;20054;-69